aviador You're here:

LEAL Decoded Metar

ALICANTE in SPAIN
Report Time2017-08-24 06:30:00
UTC Time2017-08-24 06:57:47
Flight Rules vfr VFR
WindVRB at 02 kt
Visibility9999 m
Phenomena:N/A
Clouds:Few 025 Hf
Expected CloudBase > 1,200 ft AGL from Temp-Dew spread
CeilingNone
Temp22°C (ISA +7)
Dew Point19°C (83% RH)
QNH1017 hPa
Density Alt1,096 ft
Elevation102 ft
Report Wrong Elevation
Raw Report
LEAL 240630Z VRB02KT 9999 FEW025 22/19 Q1017 NOSIG=

Extra information for LEAL:More info

Metar Taf Metar & Taf Last 4 Metars F.Rules Stats Wind Profile Meteogram Temp Stats Airport Information Weather charts Add Link Nearby VenuesMetar ALERT Operation Metar Decoded Social comments